sensor_id;sensor_type;location;lat;lon;timestamp;temperature;humidity
21616;DHT22;10970;48.714;9.584;2022-12-18T00:00:09;-9.80;99.90
21616;DHT22;10970;48.714;9.584;2022-12-18T00:02:35;-9.80;99.90
21616;DHT22;10970;48.714;9.584;2022-12-18T00:05:01;-9.80;99.90
21616;DHT22;10970;48.714;9.584;2022-12-18T00:07:29;-9.80;99.90
21616;DHT22;10970;48.714;9.584;2022-12-18T00:09:54;-9.90;99.90
21616;DHT22;10970;48.714;9.584;2022-12-18T00:12:20;-9.90;99.90
21616;DHT22;10970;48.714;9.584;2022-12-18T00:14:46;-9.90;99.90
21616;DHT22;10970;48.714;9.584;2022-12-18T00:17:11;-9.80;99.90
21616;DHT22;10970;48.714;9.584;2022-12-18T00:19:37;-9.80;99.90
21616;DHT22;10970;48.714;9.584;2022-12-18T00:22:02;-9.80;99.90
21616;DHT22;10970;48.714;9.584;2022-12-18T00:24:28;-9.80;99.90
21616;DHT22;10970;48.714;9.584;2022-12-18T00:26:54;-9.90;99.90
21616;DHT22;10970;48.714;9.584;2022-12-18T00:29:19;-10.00;99.90
21616;DHT22;10970;48.714;9.584;2022-12-18T00:31:45;-10.00;99.90
21616;DHT22;10970;48.714;9.584;2022-12-18T00:34:12;-9.90;99.90
21616;DHT22;10970;48.714;9.584;2022-12-18T00:36:39;-9.90;99.90
21616;DHT22;10970;48.714;9.584;2022-12-18T00:39:06;-9.90;99.90
21616;DHT22;10970;48.714;9.584;2022-12-18T00:41:32;-10.00;99.90
21616;DHT22;10970;48.714;9.584;2022-12-18T00:44:17;-10.00;99.90
21616;DHT22;10970;48.714;9.584;2022-12-18T00:46:44;-10.10;99.90
21616;DHT22;10970;48.714;9.584;2022-12-18T00:49:14;-10.10;99.90
21616;DHT22;10970;48.714;9.584;2022-12-18T00:51:40;-10.10;99.90
21616;DHT22;10970;48.714;9.584;2022-12-18T00:54:05;-10.20;99.90
21616;DHT22;10970;48.714;9.584;2022-12-18T00:56:31;-10.20;99.90
21616;DHT22;10970;48.714;9.584;2022-12-18T00:58:56;-10.20;99.90
21616;DHT22;10970;48.714;9.584;2022-12-18T01:01:22;-10.20;99.90
21616;DHT22;10970;48.714;9.584;2022-12-18T01:03:48;-10.20;99.90
21616;DHT22;10970;48.714;9.584;2022-12-18T01:06:15;-10.20;99.90
21616;DHT22;10970;48.714;9.584;2022-12-18T01:08:41;-10.20;99.90
21616;DHT22;10970;48.714;9.584;2022-12-18T01:11:11;-10.30;99.90
21616;DHT22;10970;48.714;9.584;2022-12-18T01:13:38;-10.30;99.90
21616;DHT22;10970;48.714;9.584;2022-12-18T01:16:04;-10.40;99.90
21616;DHT22;10970;48.714;9.584;2022-12-18T01:18:29;-10.40;99.90
21616;DHT22;10970;48.714;9.584;2022-12-18T01:20:55;-10.40;99.90
21616;DHT22;10970;48.714;9.584;2022-12-18T01:23:21;-10.40;99.90
21616;DHT22;10970;48.714;9.584;2022-12-18T01:25:46;-10.40;99.90
21616;DHT22;10970;48.714;9.584;2022-12-18T01:28:12;-10.50;99.90
21616;DHT22;10970;48.714;9.584;2022-12-18T01:30:38;-10.50;99.90
21616;DHT22;10970;48.714;9.584;2022-12-18T01:33:06;-10.60;99.90
21616;DHT22;10970;48.714;9.584;2022-12-18T01:35:32;-10.60;99.90
21616;DHT22;10970;48.714;9.584;2022-12-18T01:37:57;-10.60;99.90
21616;DHT22;10970;48.714;9.584;2022-12-18T01:40:23;-10.70;99.90
21616;DHT22;10970;48.714;9.584;2022-12-18T01:42:52;-10.70;99.90
21616;DHT22;10970;48.714;9.584;2022-12-18T01:47:45;-10.70;99.90
21616;DHT22;10970;48.714;9.584;2022-12-18T01:50:18;-10.70;99.90
21616;DHT22;10970;48.714;9.584;2022-12-18T01:52:51;-10.70;99.90
21616;DHT22;10970;48.714;9.584;2022-12-18T01:55:20;-10.80;99.90
21616;DHT22;10970;48.714;9.584;2022-12-18T01:57:47;-10.90;99.90
21616;DHT22;10970;48.714;9.584;2022-12-18T02:00:17;-10.90;99.90
21616;DHT22;10970;48.714;9.584;2022-12-18T02:02:44;-10.90;99.90
21616;DHT22;10970;48.714;9.584;2022-12-18T02:05:12;-10.90;99.90
21616;DHT22;10970;48.714;9.584;2022-12-18T02:08:02;-10.90;99.90
21616;DHT22;10970;48.714;9.584;2022-12-18T02:16:01;-10.90;99.90
21616;DHT22;10970;48.714;9.584;2022-12-18T02:18:37;-10.90;99.90
21616;DHT22;10970;48.714;9.584;2022-12-18T02:24:29;-11.00;99.90
21616;DHT22;10970;48.714;9.584;2022-12-18T02:27:00;-11.00;99.90
21616;DHT22;10970;48.714;9.584;2022-12-18T02:29:46;-11.00;99.90
21616;DHT22;10970;48.714;9.584;2022-12-18T02:32:19;-10.90;99.90
21616;DHT22;10970;48.714;9.584;2022-12-18T02:34:46;-10.70;99.90
21616;DHT22;10970;48.714;9.584;2022-12-18T02:37:16;-10.50;99.90
21616;DHT22;10970;48.714;9.584;2022-12-18T02:39:44;-10.50;99.90
21616;DHT22;10970;48.714;9.584;2022-12-18T02:42:11;-10.60;99.90
21616;DHT22;10970;48.714;9.584;2022-12-18T02:44:49;-10.50;99.90
21616;DHT22;10970;48.714;9.584;2022-12-18T02:47:18;-10.60;99.90
21616;DHT22;10970;48.714;9.584;2022-12-18T02:50:05;-10.40;99.90
21616;DHT22;10970;48.714;9.584;2022-12-18T02:55:26;-10.50;99.90
21616;DHT22;10970;48.714;9.584;2022-12-18T02:58:04;-10.40;99.90
21616;DHT22;10970;48.714;9.584;2022-12-18T03:00:42;-10.50;99.90
21616;DHT22;10970;48.714;9.584;2022-12-18T03:03:29;-10.60;99.90
21616;DHT22;10970;48.714;9.584;2022-12-18T03:06:06;-10.70;99.90
21616;DHT22;10970;48.714;9.584;2022-12-18T03:08:38;-10.70;99.90
21616;DHT22;10970;48.714;9.584;2022-12-18T03:11:12;-10.70;99.90
21616;DHT22;10970;48.714;9.584;2022-12-18T03:13:56;-10.70;99.90
21616;DHT22;10970;48.714;9.584;2022-12-18T03:16:26;-10.70;99.90
21616;DHT22;10970;48.714;9.584;2022-12-18T03:19:01;-10.70;99.90
21616;DHT22;10970;48.714;9.584;2022-12-18T03:21:32;-10.70;99.90
21616;DHT22;10970;48.714;9.584;2022-12-18T03:23:59;-10.70;99.90
21616;DHT22;10970;48.714;9.584;2022-12-18T03:26:26;-10.70;99.90
21616;DHT22;10970;48.714;9.584;2022-12-18T03:28:57;-10.70;99.90
21616;DHT22;10970;48.714;9.584;2022-12-18T03:31:26;-10.70;99.90
21616;DHT22;10970;48.714;9.584;2022-12-18T03:33:56;-10.60;99.90
21616;DHT22;10970;48.714;9.584;2022-12-18T03:36:23;-10.60;99.90
21616;DHT22;10970;48.714;9.584;2022-12-18T03:38:49;-10.60;99.90
21616;DHT22;10970;48.714;9.584;2022-12-18T03:43:58;-10.60;99.90
21616;DHT22;10970;48.714;9.584;2022-12-18T03:46:52;-10.60;99.90
21616;DHT22;10970;48.714;9.584;2022-12-18T03:54:44;-10.60;99.90
21616;DHT22;10970;48.714;9.584;2022-12-18T03:57:14;-10.60;99.90
21616;DHT22;10970;48.714;9.584;2022-12-18T03:59:43;-10.60;99.90
21616;DHT22;10970;48.714;9.584;2022-12-18T04:02:09;-10.60;99.90
21616;DHT22;10970;48.714;9.584;2022-12-18T04:04:39;-10.60;99.90
21616;DHT22;10970;48.714;9.584;2022-12-18T04:07:06;-10.50;99.90
21616;DHT22;10970;48.714;9.584;2022-12-18T04:09:33;-10.50;99.90
21616;DHT22;10970;48.714;9.584;2022-12-18T04:11:59;-10.50;99.90
21616;DHT22;10970;48.714;9.584;2022-12-18T04:14:25;-10.50;99.90
21616;DHT22;10970;48.714;9.584;2022-12-18T04:16:50;-10.50;99.90
21616;DHT22;10970;48.714;9.584;2022-12-18T04:19:16;-10.60;99.90
21616;DHT22;10970;48.714;9.584;2022-12-18T04:21:42;-10.70;99.90
21616;DHT22;10970;48.714;9.584;2022-12-18T04:24:07;-10.60;99.90
21616;DHT22;10970;48.714;9.584;2022-12-18T04:26:33;-10.70;99.90
21616;DHT22;10970;48.714;9.584;2022-12-18T04:28:59;-10.70;99.90
21616;DHT22;10970;48.714;9.584;2022-12-18T04:31:25;-10.70;99.90
21616;DHT22;10970;48.714;9.584;2022-12-18T04:33:51;-10.80;99.90
21616;DHT22;10970;48.714;9.584;2022-12-18T04:36:16;-10.80;99.90
21616;DHT22;10970;48.714;9.584;2022-12-18T04:38:42;-10.80;99.90
21616;DHT22;10970;48.714;9.584;2022-12-18T04:41:08;-10.80;99.90
21616;DHT22;10970;48.714;9.584;2022-12-18T04:43:33;-10.70;99.90
21616;DHT22;10970;48.714;9.584;2022-12-18T04:46:06;-10.60;99.90
21616;DHT22;10970;48.714;9.584;2022-12-18T04:48:32;-10.70;99.90
21616;DHT22;10970;48.714;9.584;2022-12-18T04:50:58;-10.70;99.90
21616;DHT22;10970;48.714;9.584;2022-12-18T04:53:24;-10.70;99.90
21616;DHT22;10970;48.714;9.584;2022-12-18T04:55:49;-10.70;99.90
21616;DHT22;10970;48.714;9.584;2022-12-18T04:58:15;-10.70;99.90
21616;DHT22;10970;48.714;9.584;2022-12-18T05:00:41;-10.70;99.90
21616;DHT22;10970;48.714;9.584;2022-12-18T05:03:06;-10.70;99.90
21616;DHT22;10970;48.714;9.584;2022-12-18T05:05:34;-10.60;99.90
21616;DHT22;10970;48.714;9.584;2022-12-18T05:08:00;-10.60;99.90
21616;DHT22;10970;48.714;9.584;2022-12-18T05:10:25;-10.60;99.90
21616;DHT22;10970;48.714;9.584;2022-12-18T05:12:51;-10.70;99.90
21616;DHT22;10970;48.714;9.584;2022-12-18T05:15:30;-10.60;99.90
21616;DHT22;10970;48.714;9.584;2022-12-18T05:17:57;-10.60;99.90
21616;DHT22;10970;48.714;9.584;2022-12-18T05:20:23;-10.60;99.90
21616;DHT22;10970;48.714;9.584;2022-12-18T05:22:49;-10.70;99.90
21616;DHT22;10970;48.714;9.584;2022-12-18T05:25:15;-10.70;99.90
21616;DHT22;10970;48.714;9.584;2022-12-18T05:27:41;-10.70;99.90
21616;DHT22;10970;48.714;9.584;2022-12-18T05:30:07;-10.60;99.90
21616;DHT22;10970;48.714;9.584;2022-12-18T05:32:33;-10.60;99.90
21616;DHT22;10970;48.714;9.584;2022-12-18T05:34:59;-10.70;99.90
21616;DHT22;10970;48.714;9.584;2022-12-18T05:37:25;-10.70;99.90
21616;DHT22;10970;48.714;9.584;2022-12-18T05:39:50;-10.70;99.90
21616;DHT22;10970;48.714;9.584;2022-12-18T05:42:16;-10.80;99.90
21616;DHT22;10970;48.714;9.584;2022-12-18T05:44:43;-11.00;99.90
21616;DHT22;10970;48.714;9.584;2022-12-18T05:47:08;-11.10;99.90
21616;DHT22;10970;48.714;9.584;2022-12-18T05:49:34;-11.10;99.90
21616;DHT22;10970;48.714;9.584;2022-12-18T05:51:59;-11.10;99.90
21616;DHT22;10970;48.714;9.584;2022-12-18T05:54:27;-11.10;99.90
21616;DHT22;10970;48.714;9.584;2022-12-18T05:56:53;-11.20;99.90
21616;DHT22;10970;48.714;9.584;2022-12-18T05:59:19;-11.20;99.90
21616;DHT22;10970;48.714;9.584;2022-12-18T06:01:45;-11.20;99.90
21616;DHT22;10970;48.714;9.584;2022-12-18T06:04:10;-11.30;99.90
21616;DHT22;10970;48.714;9.584;2022-12-18T06:06:36;-11.40;99.90
21616;DHT22;10970;48.714;9.584;2022-12-18T06:09:02;-11.40;99.90
21616;DHT22;10970;48.714;9.584;2022-12-18T06:11:34;-11.40;99.90
21616;DHT22;10970;48.714;9.584;2022-12-18T06:13:59;-11.20;99.90
21616;DHT22;10970;48.714;9.584;2022-12-18T06:16:27;-11.20;99.90
21616;DHT22;10970;48.714;9.584;2022-12-18T06:18:53;-11.10;99.90
21616;DHT22;10970;48.714;9.584;2022-12-18T06:21:18;-11.10;99.90
21616;DHT22;10970;48.714;9.584;2022-12-18T06:23:45;-11.30;99.90
21616;DHT22;10970;48.714;9.584;2022-12-18T06:26:11;-11.30;99.90
21616;DHT22;10970;48.714;9.584;2022-12-18T06:28:37;-11.30;99.90
21616;DHT22;10970;48.714;9.584;2022-12-18T06:31:04;-10.40;99.90
21616;DHT22;10970;48.714;9.584;2022-12-18T06:33:31;-11.30;99.90
21616;DHT22;10970;48.714;9.584;2022-12-18T06:36:06;-11.20;99.90
21616;DHT22;10970;48.714;9.584;2022-12-18T06:38:33;-11.10;99.90
21616;DHT22;10970;48.714;9.584;2022-12-18T06:40:59;-11.00;99.90
21616;DHT22;10970;48.714;9.584;2022-12-18T06:43:25;-10.90;99.90
21616;DHT22;10970;48.714;9.584;2022-12-18T06:45:57;-10.80;99.90
21616;DHT22;10970;48.714;9.584;2022-12-18T06:48:24;-10.70;99.90
21616;DHT22;10970;48.714;9.584;2022-12-18T06:50:50;-10.60;99.90
21616;DHT22;10970;48.714;9.584;2022-12-18T06:53:15;-9.90;99.90
21616;DHT22;10970;48.714;9.584;2022-12-18T06:55:41;-9.50;99.90
21616;DHT22;10970;48.714;9.584;2022-12-18T06:58:06;-9.60;99.90
21616;DHT22;10970;48.714;9.584;2022-12-18T07:00:32;-10.00;99.90
21616;DHT22;10970;48.714;9.584;2022-12-18T07:02:58;-10.30;99.90
21616;DHT22;10970;48.714;9.584;2022-12-18T07:05:23;-10.50;99.90
21616;DHT22;10970;48.714;9.584;2022-12-18T07:07:49;-10.50;99.90
21616;DHT22;10970;48.714;9.584;2022-12-18T07:10:14;-10.60;99.90
21616;DHT22;10970;48.714;9.584;2022-12-18T07:12:40;-10.00;99.90
21616;DHT22;10970;48.714;9.584;2022-12-18T07:15:07;-9.90;99.90
21616;DHT22;10970;48.714;9.584;2022-12-18T07:17:32;-10.00;99.90
21616;DHT22;10970;48.714;9.584;2022-12-18T07:19:58;-10.20;99.90
21616;DHT22;10970;48.714;9.584;2022-12-18T07:22:25;-10.20;99.90
21616;DHT22;10970;48.714;9.584;2022-12-18T07:24:51;-9.70;99.90
21616;DHT22;10970;48.714;9.584;2022-12-18T07:27:16;-9.40;99.90
21616;DHT22;10970;48.714;9.584;2022-12-18T07:29:42;-8.90;99.90
21616;DHT22;10970;48.714;9.584;2022-12-18T07:32:08;-8.80;99.90
21616;DHT22;10970;48.714;9.584;2022-12-18T07:34:34;-8.90;99.90
21616;DHT22;10970;48.714;9.584;2022-12-18T07:37:00;-9.00;99.90
21616;DHT22;10970;48.714;9.584;2022-12-18T07:39:25;-8.80;99.90
21616;DHT22;10970;48.714;9.584;2022-12-18T07:41:51;-8.50;99.90
21616;DHT22;10970;48.714;9.584;2022-12-18T07:44:35;-7.80;99.90
21616;DHT22;10970;48.714;9.584;2022-12-18T07:47:01;-7.80;99.90
21616;DHT22;10970;48.714;9.584;2022-12-18T07:49:27;-8.10;99.90
21616;DHT22;10970;48.714;9.584;2022-12-18T07:51:55;-8.30;99.90
21616;DHT22;10970;48.714;9.584;2022-12-18T07:54:22;-8.40;99.90
21616;DHT22;10970;48.714;9.584;2022-12-18T07:56:48;-8.50;99.90
21616;DHT22;10970;48.714;9.584;2022-12-18T07:59:14;-8.70;99.90
21616;DHT22;10970;48.714;9.584;2022-12-18T08:01:39;-8.80;99.90
21616;DHT22;10970;48.714;9.584;2022-12-18T08:04:05;-8.40;99.90
21616;DHT22;10970;48.714;9.584;2022-12-18T08:06:31;-8.20;99.90
21616;DHT22;10970;48.714;9.584;2022-12-18T08:08:57;-8.00;99.90
21616;DHT22;10970;48.714;9.584;2022-12-18T08:11:24;-7.80;99.90
21616;DHT22;10970;48.714;9.584;2022-12-18T08:13:51;-8.00;99.90
21616;DHT22;10970;48.714;9.584;2022-12-18T08:16:17;-7.40;99.90
21616;DHT22;10970;48.714;9.584;2022-12-18T08:18:42;-7.10;99.90
21616;DHT22;10970;48.714;9.584;2022-12-18T08:21:20;-6.90;99.90
21616;DHT22;10970;48.714;9.584;2022-12-18T08:23:47;-6.30;99.90
21616;DHT22;10970;48.714;9.584;2022-12-18T08:26:13;-6.30;99.90
21616;DHT22;10970;48.714;9.584;2022-12-18T08:28:40;-6.60;99.90
21616;DHT22;10970;48.714;9.584;2022-12-18T08:31:06;-7.00;99.90
21616;DHT22;10970;48.714;9.584;2022-12-18T08:33:33;-7.20;99.90
21616;DHT22;10970;48.714;9.584;2022-12-18T08:35:59;-7.60;99.90
21616;DHT22;10970;48.714;9.584;2022-12-18T08:38:25;-7.80;99.90
21616;DHT22;10970;48.714;9.584;2022-12-18T08:40:58;-8.20;99.90
21616;DHT22;10970;48.714;9.584;2022-12-18T08:43:25;-8.20;99.90
21616;DHT22;10970;48.714;9.584;2022-12-18T08:46:09;-8.30;99.90
21616;DHT22;10970;48.714;9.584;2022-12-18T08:48:35;-8.10;99.90
21616;DHT22;10970;48.714;9.584;2022-12-18T08:51:01;-7.40;99.90
21616;DHT22;10970;48.714;9.584;2022-12-18T08:53:27;-6.80;99.90
21616;DHT22;10970;48.714;9.584;2022-12-18T08:55:53;-6.50;99.90
21616;DHT22;10970;48.714;9.584;2022-12-18T08:58:19;-6.50;99.90
21616;DHT22;10970;48.714;9.584;2022-12-18T09:00:45;-6.10;99.90
21616;DHT22;10970;48.714;9.584;2022-12-18T09:03:15;-5.70;99.90
21616;DHT22;10970;48.714;9.584;2022-12-18T09:05:41;-5.80;99.90
21616;DHT22;10970;48.714;9.584;2022-12-18T09:08:07;-6.30;99.90
21616;DHT22;10970;48.714;9.584;2022-12-18T09:10:33;-6.40;99.90
21616;DHT22;10970;48.714;9.584;2022-12-18T09:12:59;-6.70;99.90
21616;DHT22;10970;48.714;9.584;2022-12-18T09:15:25;-6.70;99.90
21616;DHT22;10970;48.714;9.584;2022-12-18T09:17:51;-6.70;99.90
21616;DHT22;10970;48.714;9.584;2022-12-18T09:20:18;-6.80;99.90
21616;DHT22;10970;48.714;9.584;2022-12-18T09:22:44;-6.70;99.90
21616;DHT22;10970;48.714;9.584;2022-12-18T09:25:10;-6.70;99.90
21616;DHT22;10970;48.714;9.584;2022-12-18T09:27:35;-6.70;99.90
21616;DHT22;10970;48.714;9.584;2022-12-18T09:30:02;-6.70;99.90
21616;DHT22;10970;48.714;9.584;2022-12-18T09:32:28;-6.80;99.90
21616;DHT22;10970;48.714;9.584;2022-12-18T09:34:54;-6.80;99.90
21616;DHT22;10970;48.714;9.584;2022-12-18T09:37:19;-6.70;99.90
21616;DHT22;10970;48.714;9.584;2022-12-18T09:39:45;-6.70;99.90
21616;DHT22;10970;48.714;9.584;2022-12-18T09:42:20;-6.70;99.90
21616;DHT22;10970;48.714;9.584;2022-12-18T09:44:50;-6.50;99.90
21616;DHT22;10970;48.714;9.584;2022-12-18T09:47:27;-6.40;99.90
21616;DHT22;10970;48.714;9.584;2022-12-18T09:50:00;-6.30;99.90
21616;DHT22;10970;48.714;9.584;2022-12-18T09:52:33;-6.30;99.90
21616;DHT22;10970;48.714;9.584;2022-12-18T09:57:39;-5.90;99.90
21616;DHT22;10970;48.714;9.584;2022-12-18T10:00:24;-5.70;99.90
21616;DHT22;10970;48.714;9.584;2022-12-18T10:03:01;-5.20;99.90
21616;DHT22;10970;48.714;9.584;2022-12-18T10:08:22;-4.50;99.90
21616;DHT22;10970;48.714;9.584;2022-12-18T10:19:20;-3.40;99.90
21616;DHT22;10970;48.714;9.584;2022-12-18T10:24:11;-3.10;99.90
21616;DHT22;10970;48.714;9.584;2022-12-18T10:26:41;-3.10;99.90
21616;DHT22;10970;48.714;9.584;2022-12-18T10:29:12;-3.00;99.90
21616;DHT22;10970;48.714;9.584;2022-12-18T10:31:38;-2.90;99.90
21616;DHT22;10970;48.714;9.584;2022-12-18T10:34:04;-2.90;99.90
21616;DHT22;10970;48.714;9.584;2022-12-18T10:36:29;-2.70;99.90
21616;DHT22;10970;48.714;9.584;2022-12-18T10:39:14;-2.70;99.90
21616;DHT22;10970;48.714;9.584;2022-12-18T10:41:40;-2.50;99.90
21616;DHT22;10970;48.714;9.584;2022-12-18T10:44:29;-2.50;99.90
21616;DHT22;10970;48.714;9.584;2022-12-18T10:47:03;-2.40;99.90
21616;DHT22;10970;48.714;9.584;2022-12-18T10:49:32;-2.50;99.90
21616;DHT22;10970;48.714;9.584;2022-12-18T10:52:25;-2.20;99.90
21616;DHT22;10970;48.714;9.584;2022-12-18T10:54:59;-2.30;99.90
21616;DHT22;10970;48.714;9.584;2022-12-18T10:57:40;-2.30;99.90
21616;DHT22;10970;48.714;9.584;2022-12-18T11:00:30;-2.30;99.90
21616;DHT22;10970;48.714;9.584;2022-12-18T11:02:56;-2.10;99.90
21616;DHT22;10970;48.714;9.584;2022-12-18T11:07:50;-2.10;99.90
21616;DHT22;10970;48.714;9.584;2022-12-18T11:10:20;-2.00;99.90
21616;DHT22;10970;48.714;9.584;2022-12-18T11:12:46;-2.00;99.90
21616;DHT22;10970;48.714;9.584;2022-12-18T11:15:27;-1.90;99.90
21616;DHT22;10970;48.714;9.584;2022-12-18T11:17:55;-1.90;99.90
21616;DHT22;10970;48.714;9.584;2022-12-18T11:20:32;-1.80;99.90
21616;DHT22;10970;48.714;9.584;2022-12-18T11:23:12;-1.60;99.90
21616;DHT22;10970;48.714;9.584;2022-12-18T11:25:38;-1.50;99.90
21616;DHT22;10970;48.714;9.584;2022-12-18T11:33:43;-1.50;99.90
21616;DHT22;10970;48.714;9.584;2022-12-18T11:36:10;-1.50;99.90
21616;DHT22;10970;48.714;9.584;2022-12-18T11:38:39;-1.40;99.90
21616;DHT22;10970;48.714;9.584;2022-12-18T11:43:40;-1.40;99.90
21616;DHT22;10970;48.714;9.584;2022-12-18T11:46:15;-1.30;99.90
21616;DHT22;10970;48.714;9.584;2022-12-18T11:48:58;-1.20;99.90
21616;DHT22;10970;48.714;9.584;2022-12-18T11:51:55;-1.20;99.90
21616;DHT22;10970;48.714;9.584;2022-12-18T11:54:22;-1.20;99.90
21616;DHT22;10970;48.714;9.584;2022-12-18T11:56:56;-1.50;99.90
21616;DHT22;10970;48.714;9.584;2022-12-18T12:04:53;-1.40;99.90
21616;DHT22;10970;48.714;9.584;2022-12-18T12:07:31;-1.40;99.90
21616;DHT22;10970;48.714;9.584;2022-12-18T12:20:45;-1.20;99.90
21616;DHT22;10970;48.714;9.584;2022-12-18T12:26:09;-1.40;99.90
21616;DHT22;10970;48.714;9.584;2022-12-18T12:31:50;-1.50;99.90
21616;DHT22;10970;48.714;9.584;2022-12-18T12:34:30;-1.50;99.90
21616;DHT22;10970;48.714;9.584;2022-12-18T12:39:35;-1.50;99.90
21616;DHT22;10970;48.714;9.584;2022-12-18T12:42:04;-1.60;99.90
21616;DHT22;10970;48.714;9.584;2022-12-18T12:44:55;-1.60;99.90
21616;DHT22;10970;48.714;9.584;2022-12-18T12:47:42;-1.50;99.90
21616;DHT22;10970;48.714;9.584;2022-12-18T12:50:16;-1.50;99.90
21616;DHT22;10970;48.714;9.584;2022-12-18T12:53:05;-1.50;99.90
21616;DHT22;10970;48.714;9.584;2022-12-18T12:55:32;-1.60;99.90
21616;DHT22;10970;48.714;9.584;2022-12-18T12:58:02;-1.60;99.90
21616;DHT22;10970;48.714;9.584;2022-12-18T13:09:33;-1.50;99.90
21616;DHT22;10970;48.714;9.584;2022-12-18T13:12:11;-1.50;99.90
21616;DHT22;10970;48.714;9.584;2022-12-18T13:15:21;-1.60;99.90
21616;DHT22;10970;48.714;9.584;2022-12-18T13:17:47;-1.70;99.90
21616;DHT22;10970;48.714;9.584;2022-12-18T13:20:14;-1.60;99.90
21616;DHT22;10970;48.714;9.584;2022-12-18T13:22:44;-1.60;99.90
21616;DHT22;10970;48.714;9.584;2022-12-18T13:25:34;-1.50;99.90
21616;DHT22;10970;48.714;9.584;2022-12-18T13:41:37;-1.60;99.90
21616;DHT22;10970;48.714;9.584;2022-12-18T13:46:58;-1.60;99.90
21616;DHT22;10970;48.714;9.584;2022-12-18T13:49:37;-1.40;99.90
21616;DHT22;10970;48.714;9.584;2022-12-18T13:52:19;-1.40;99.90
21616;DHT22;10970;48.714;9.584;2022-12-18T13:54:52;-1.60;99.90
21616;DHT22;10970;48.714;9.584;2022-12-18T13:57:35;-1.70;99.90
21616;DHT22;10970;48.714;9.584;2022-12-18T14:02:48;-1.70;99.90
21616;DHT22;10970;48.714;9.584;2022-12-18T14:05:41;-1.70;99.90
21616;DHT22;10970;48.714;9.584;2022-12-18T14:08:12;-1.60;99.90
21616;DHT22;10970;48.714;9.584;2022-12-18T14:10:44;-1.70;99.90
21616;DHT22;10970;48.714;9.584;2022-12-18T14:13:18;-1.70;99.90
21616;DHT22;10970;48.714;9.584;2022-12-18T14:15:48;-1.70;99.90
21616;DHT22;10970;48.714;9.584;2022-12-18T14:20:47;-1.70;99.90
21616;DHT22;10970;48.714;9.584;2022-12-18T14:23:35;-1.80;99.90
21616;DHT22;10970;48.714;9.584;2022-12-18T14:26:03;-1.90;99.90
21616;DHT22;10970;48.714;9.584;2022-12-18T14:28:44;-2.00;99.90
21616;DHT22;10970;48.714;9.584;2022-12-18T14:31:20;-2.10;99.90
21616;DHT22;10970;48.714;9.584;2022-12-18T14:33:46;-2.00;99.90
21616;DHT22;10970;48.714;9.584;2022-12-18T14:36:16;-2.10;99.90
21616;DHT22;10970;48.714;9.584;2022-12-18T14:38:43;-2.10;99.90
21616;DHT22;10970;48.714;9.584;2022-12-18T14:41:16;-2.20;99.90
21616;DHT22;10970;48.714;9.584;2022-12-18T14:43:44;-2.30;99.90
21616;DHT22;10970;48.714;9.584;2022-12-18T14:49:03;-2.30;99.90
21616;DHT22;10970;48.714;9.584;2022-12-18T14:51:33;-2.40;99.90
21616;DHT22;10970;48.714;9.584;2022-12-18T14:54:04;-2.40;99.90
21616;DHT22;10970;48.714;9.584;2022-12-18T14:56:44;-2.50;99.90
21616;DHT22;10970;48.714;9.584;2022-12-18T14:59:21;-2.50;99.90
21616;DHT22;10970;48.714;9.584;2022-12-18T15:07:04;-2.70;99.90
21616;DHT22;10970;48.714;9.584;2022-12-18T15:09:30;-2.70;99.90
21616;DHT22;10970;48.714;9.584;2022-12-18T15:11:58;-2.70;99.90
21616;DHT22;10970;48.714;9.584;2022-12-18T15:14:31;-2.80;99.90
21616;DHT22;10970;48.714;9.584;2022-12-18T15:16:59;-2.80;99.90
21616;DHT22;10970;48.714;9.584;2022-12-18T15:19:38;-2.90;99.90
21616;DHT22;10970;48.714;9.584;2022-12-18T15:22:12;-2.90;99.90
21616;DHT22;10970;48.714;9.584;2022-12-18T15:24:42;-3.00;99.90
21616;DHT22;10970;48.714;9.584;2022-12-18T15:27:41;-3.00;99.90
21616;DHT22;10970;48.714;9.584;2022-12-18T15:32:36;-3.00;99.90
21616;DHT22;10970;48.714;9.584;2022-12-18T15:37:35;-3.10;99.90
21616;DHT22;10970;48.714;9.584;2022-12-18T15:40:00;-3.10;99.90
21616;DHT22;10970;48.714;9.584;2022-12-18T15:42:28;-3.10;99.90
21616;DHT22;10970;48.714;9.584;2022-12-18T15:45:13;-3.10;99.90
21616;DHT22;10970;48.714;9.584;2022-12-18T15:47:40;-3.20;99.90
21616;DHT22;10970;48.714;9.584;2022-12-18T15:50:09;-3.20;99.90
21616;DHT22;10970;48.714;9.584;2022-12-18T15:52:40;-3.20;99.90
21616;DHT22;10970;48.714;9.584;2022-12-18T15:55:21;-3.20;99.90
21616;DHT22;10970;48.714;9.584;2022-12-18T15:58:06;-3.20;99.90
21616;DHT22;10970;48.714;9.584;2022-12-18T16:00:34;-3.30;99.90
21616;DHT22;10970;48.714;9.584;2022-12-18T16:03:00;-3.30;99.90
21616;DHT22;10970;48.714;9.584;2022-12-18T16:05:26;-3.30;99.90
21616;DHT22;10970;48.714;9.584;2022-12-18T16:07:53;-3.40;99.90
21616;DHT22;10970;48.714;9.584;2022-12-18T16:10:19;-3.40;99.90
21616;DHT22;10970;48.714;9.584;2022-12-18T16:12:45;-3.40;99.90
21616;DHT22;10970;48.714;9.584;2022-12-18T16:15:13;-3.40;99.90
21616;DHT22;10970;48.714;9.584;2022-12-18T16:17:42;-3.40;99.90
21616;DHT22;10970;48.714;9.584;2022-12-18T16:20:18;-3.40;99.90
21616;DHT22;10970;48.714;9.584;2022-12-18T16:22:45;-3.40;99.90
21616;DHT22;10970;48.714;9.584;2022-12-18T16:25:27;-3.40;99.90
21616;DHT22;10970;48.714;9.584;2022-12-18T16:27:54;-3.50;99.90
21616;DHT22;10970;48.714;9.584;2022-12-18T16:30:30;-3.50;99.90
21616;DHT22;10970;48.714;9.584;2022-12-18T16:32:57;-3.50;99.90
21616;DHT22;10970;48.714;9.584;2022-12-18T16:35:24;-3.50;99.90
21616;DHT22;10970;48.714;9.584;2022-12-18T16:37:50;-3.50;99.90
21616;DHT22;10970;48.714;9.584;2022-12-18T16:40:16;-3.50;99.90
21616;DHT22;10970;48.714;9.584;2022-12-18T16:42:44;-3.60;99.90
21616;DHT22;10970;48.714;9.584;2022-12-18T16:45:12;-3.60;99.90
21616;DHT22;10970;48.714;9.584;2022-12-18T16:47:39;-3.50;99.90
21616;DHT22;10970;48.714;9.584;2022-12-18T16:50:05;-3.60;99.90
21616;DHT22;10970;48.714;9.584;2022-12-18T16:52:31;-3.50;99.90
21616;DHT22;10970;48.714;9.584;2022-12-18T16:54:57;-3.50;99.90
21616;DHT22;10970;48.714;9.584;2022-12-18T16:57:23;-3.50;99.90
21616;DHT22;10970;48.714;9.584;2022-12-18T16:59:49;-3.60;99.90
21616;DHT22;10970;48.714;9.584;2022-12-18T17:02:17;-3.60;99.90
21616;DHT22;10970;48.714;9.584;2022-12-18T17:04:44;-3.60;99.90
21616;DHT22;10970;48.714;9.584;2022-12-18T17:07:11;-4.00;99.90
21616;DHT22;10970;48.714;9.584;2022-12-18T17:09:38;-3.60;99.90
21616;DHT22;10970;48.714;9.584;2022-12-18T17:12:04;-3.50;99.90
21616;DHT22;10970;48.714;9.584;2022-12-18T17:14:31;-3.50;99.90
21616;DHT22;10970;48.714;9.584;2022-12-18T17:16:57;-3.60;99.90
21616;DHT22;10970;48.714;9.584;2022-12-18T17:19:24;-3.60;99.90
21616;DHT22;10970;48.714;9.584;2022-12-18T17:21:51;-3.60;99.90
21616;DHT22;10970;48.714;9.584;2022-12-18T17:24:18;-3.60;99.90
21616;DHT22;10970;48.714;9.584;2022-12-18T17:26:44;-3.40;99.90
21616;DHT22;10970;48.714;9.584;2022-12-18T17:29:19;-3.50;99.90
21616;DHT22;10970;48.714;9.584;2022-12-18T17:31:47;-3.60;99.90
21616;DHT22;10970;48.714;9.584;2022-12-18T17:34:17;-3.60;99.90
21616;DHT22;10970;48.714;9.584;2022-12-18T17:36:59;-3.20;99.90